Latest Weather Observations for Essendon Airport

IDV60801

Issued at 1:02 pm EDT Thursday 19 January 2017 (issued every 30 minutes, with the page automatically refreshed every 10 minutes)

About weather observations | Map of weather stations | Latest weather observations for VIC | Other Formats
Station Details ID: 086038 Name: ESSENDON AIRPORT Lat: -37.73 Lon: 144.91 Height: 78.4 m
Data from the previous 72 hours. | See also: Recent months at Essendon Airport
Date/Time
EDT
Temp
°C
App
Temp
°C
Dew
Point
°C
Rel
Hum
%
Delta-T
°C
Wind Press
QNH
hPa
Press
MSL
hPa
Rain since
9am
mm
Dir  Spd
km/h
Gust
km/h
Spd
kts
Gust
kts
19/01:00pm 22.1 19.1 7.9 40 7.5 SSW 13 39 7 21 1011.2 1011.0 0.0
19/12:30pm 21.2 17.4 7.4 41 7.1 S 17 28 9 15 1011.7 1011.5 0.0
19/12:00pm 20.3 17.3 7.7 44 6.5 S 13 22 7 12 1012.3 1012.1 0.0
19/11:30am 19.5 15.7 7.6 46 6.1 SSW 17 24 9 13 1012.6 1012.4 0.0
19/11:00am 18.9 15.1 7.4 47 5.9 SSW 17 26 9 14 1012.9 1012.7 0.0
19/10:30am 17.8 14.1 6.3 47 5.7 S 15 26 8 14 1013.2 1013.0 0.0
19/10:00am 17.8 13.9 7.0 49 5.4 SSW 17 24 9 13 1013.5 1013.3 0.0
19/09:30am 17.2 13.2 6.7 50 5.2 SSE 17 26 9 14 1013.9 1013.7 0.0
19/09:00am 16.6 12.2 7.3 54 4.7 SSE 20 24 11 13 1014.2 1014.0 0.0
19/08:30am 16.4 12.4 8.1 58 4.2 SSE 19 26 10 14 1014.3 1014.1 0.0
19/08:00am 15.0 12.2 8.5 65 3.3 S 13 19 7 10 1014.6 1014.4 0.0
19/07:30am 13.8 11.8 8.8 72 2.5 SSW 9 11 5 6 1014.6 1014.4 0.0
19/07:00am 12.0 10.0 8.8 81 1.6 S 9 11 5 6 1014.6 1014.4 0.0
19/06:30am 10.2 8.2 7.3 82 1.4 SSW 7 9 4 5 1014.6 1014.4 0.0
19/06:00am 10.0 8.1 6.7 80 1.6 SSE 6 9 3 5 1014.2 1014.0 0.0
19/05:30am 10.3 8.5 7.0 80 1.6 SE 6 7 3 4 1014.6 1014.4 0.0
19/05:00am 11.0 9.0 7.3 78 1.8 SE 7 9 4 5 1014.3 1014.1 0.0
19/04:30am 11.2 9.2 7.3 77 1.9 SSE 7 11 4 6 1014.6 1014.4 0.0
19/04:00am 11.2 9.2 7.1 76 2.0 SSE 7 9 4 5 1014.7 1014.5 0.0
19/03:30am 11.6 8.8 7.1 74 2.2 SE 11 15 6 8 1014.8 1014.6 0.0
19/03:00am 11.8 9.0 6.9 72 2.3 SE 11 15 6 8 1015.6 1015.3 0.0
19/02:30am 12.2 9.0 6.7 69 2.6 ESE 13 17 7 9 1015.7 1015.4 0.0
19/02:00am 12.6 8.9 6.4 66 3.0 SE 15 20 8 11 1016.1 1015.8 0.0
19/01:30am 12.9 9.2 6.3 64 3.1 SE 15 20 8 11 1016.3 1016.0 0.0
19/01:00am 13.4 9.2 5.8 60 3.6 SE 17 22 9 12 1016.6 1016.3 0.0
19/12:30am 13.6 9.6 6.5 62 3.4 SSE 17 22 9 12 1016.7 1016.4 0.0
19/12:00am 13.9 9.6 7.2 64 3.3 SSE 19 24 10 13 1016.8 1016.5 0.0
 
Date/Time
EDT
Temp
°C
App
Temp
°C
Dew
Point
°C
Rel
Hum
%
Delta-T
°C
Wind Press
QNH
hPa
Press
MSL
hPa
Rain since
9am
mm
Dir  Spd
km/h
Gust
km/h
Spd
kts
Gust
kts
18/11:30pm 14.2 9.8 7.3 63 3.4 SE 20 26 11 14 1017.1 1016.8 0.0
18/11:00pm 14.5 9.3 7.3 62 3.5 SSE 24 32 13 17 1017.2 1016.9 0.0
18/10:30pm 14.8 10.0 7.4 61 3.7 SSE 22 30 12 16 1017.1 1016.8 0.0
18/10:00pm 15.1 9.9 7.4 60 3.8 SSE 24 32 13 17 1017.1 1016.8 0.0
18/09:30pm 15.4 10.4 6.4 55 4.4 SSE 22 30 12 16 1016.9 1016.6 0.0
18/09:00pm 16.0 10.3 6.7 54 4.6 SSE 26 33 14 18 1016.6 1016.3 0.0
18/08:30pm 16.5 10.4 6.6 52 4.9 S 28 39 15 21 1016.6 1016.3 0.0
18/08:00pm 17.0 10.3 7.4 53 4.8 S 32 43 17 23 1016.4 1016.1 0.0
18/07:30pm 17.7 11.5 7.7 52 5.1 S 30 41 16 22 1016.0 1015.7 0.0
18/07:00pm 18.3 12.3 8.6 53 5.0 S 30 43 16 23 1015.9 1015.6 0.0
18/06:30pm 18.6 11.9 7.4 48 5.7 S 32 41 17 22 1015.9 1015.6 0.0
18/06:00pm 18.9 12.1 7.0 46 6.0 S 32 43 17 23 1015.6 1015.3 0.0
18/05:30pm 19.8 13.5 7.5 45 6.3 S 30 48 16 26 1015.7 1015.4 0.0
18/05:29pm 19.8 13.5 7.2 44 6.4 S 30 48 16 26 1015.7 1015.4 0.0
18/05:00pm 19.9 13.1 7.0 43 6.6 S 32 41 17 22 1015.8 1015.5 0.0
18/04:30pm 19.7 13.1 6.1 41 6.8 S 30 43 16 23 1015.8 1015.5 0.0
18/04:00pm 20.4 13.5 6.4 40 7.1 S 32 46 17 25 1015.7 1015.4 0.0
18/03:30pm 20.3 13.1 5.9 39 7.2 SSW 33 44 18 24 1015.5 1015.2 0.0
18/03:00pm 21.1 14.2 7.3 41 7.1 S 33 44 18 24 1015.5 1015.2 0.0
18/02:30pm 20.0 13.0 6.7 42 6.7 S 33 48 18 26 1015.7 1015.4 0.0
18/02:00pm 20.5 14.3 7.8 44 6.6 S 30 44 16 24 1015.8 1015.5 0.0
18/01:30pm 19.9 13.3 7.9 46 6.2 S 32 43 17 23 1016.0 1015.7 0.0
18/01:18pm 20.0 13.6 7.1 43 6.6 SSE 30 50 16 27 1015.8 1015.5 0.0
18/01:00pm 20.3 13.7 7.7 44 6.5 S 32 43 17 23 1015.8 1015.5 0.0
18/12:30pm 19.5 13.1 8.5 49 5.7 S 32 43 17 23 1015.5 1015.2 0.0
18/12:00pm 19.6 13.7 8.9 50 5.6 S 30 39 16 21 1015.2 1014.9 0.0
18/11:30am 19.3 13.0 7.4 46 6.1 SSW 30 41 16 22 1014.9 1014.7 0.0
18/11:00am 19.0 13.2 7.8 48 5.7 SSW 28 39 15 21 1014.6 1014.4 0.0
18/10:30am 19.6 13.2 7.0 44 6.4 S 30 39 16 21 1014.2 1014.0 0.0
18/10:00am 18.7 13.9 10.3 58 4.5 S 26 37 14 20 1014.0 1013.8 0.0
18/09:30am 18.0 12.6 9.4 57 4.5 S 28 39 15 21 1013.8 1013.6 0.0
18/09:00am 16.6 11.2 9.5 63 3.7 SSW 28 39 15 21 1013.7 1013.5 0.0
18/08:30am 16.4 11.7 10.5 68 3.1 SSW 26 35 14 19 1013.2 1013.0 0.0
18/08:00am 15.9 11.7 11.1 73 2.6 SSW 24 33 13 18 1013.1 1012.9 0.0
18/07:30am 15.0 10.2 13.0 88 1.1 SSW 30 39 16 21 1012.6 1012.4 0.0
18/07:26am 14.7 10.4 13.1 90 0.9 SSW 28 39 15 21 1012.5 1012.3 0.0
18/07:14am 14.2 10.1 13.7 97 0.3 SSW 28 44 15 24 1012.3 1012.1 0.0
18/07:00am 14.9 10.2 14.3 96 0.3 SSW 32 44 17 24 1012.1 1011.9 0.0
18/06:30am 15.3 10.9 14.2 93 0.6 SSW 30 41 16 22 1011.0 1010.8 0.0
18/06:03am 16.4 11.7 14.2 87 1.3 SSW 32 44 17 24 1010.1 1009.9 0.0
18/06:00am 16.4 11.6 13.9 85 1.4 SSW 32 44 17 24 1010.1 1009.9 0.0
18/05:30am 17.9 14.4 14.4 80 2.0 S 26 35 14 19 1009.7 1009.5 0.0
18/05:00am 18.2 14.5 14.9 81 1.9 SSW 28 35 15 19 1008.8 1008.6 0.0
18/04:31am 18.7 16.5 15.0 79 2.2 S 20 26 11 14 1008.3 1008.1 0.0
18/04:30am 18.7 16.7 15.0 79 2.2 S 19 26 10 14 1008.2 1008.0 0.0
18/04:00am 19.0 19.4 14.7 76 2.5 SW 6 9 3 5 1008.3 1008.1 0.0
18/03:30am 19.0 17.9 14.3 74 2.7 SW 13 17 7 9 1009.3 1009.1 0.0
18/03:00am 19.0 18.4 14.7 76 2.5 SW 11 15 6 8 1009.6 1009.4 0.0
18/02:30am 18.6 17.6 14.5 77 2.4 SW 13 15 7 8 1010.0 1009.8 0.0
18/02:00am 19.4 18.3 15.3 77 2.4 SW 15 19 8 10 1010.1 1009.9 0.0
18/01:30am 18.6 18.3 14.3 76 2.5 SW 9 9 5 5 1009.7 1009.5 0.0
18/01:00am 18.8 19.8 14.3 75 2.6 SW 2 7 1 4 1009.8 1009.6 0.0
18/12:37am 19.0 19.0 14.1 73 2.8 SSW 7 11 4 6 1010.5 1010.3 0.0
18/12:30am 19.3 19.3 14.1 72 3.0 SSW 7 9 4 5 1010.6 1010.4 0.0
18/12:18am 19.8 19.5 14.4 71 3.1 S 9 13 5 7 1010.5 1010.3 0.0
18/12:00am 19.9 18.9 14.5 71 3.2 S 13 17 7 9 1010.8 1010.6 0.0
 
Date/Time
EDT
Temp
°C
App
Temp
°C
Dew
Point
°C
Rel
Hum
%
Delta-T
°C
Wind Press
QNH
hPa
Press
MSL
hPa
Rain since
9am
mm
Dir  Spd
km/h
Gust
km/h
Spd
kts
Gust
kts
17/11:58pm 19.9 18.8 14.3 70 3.3 S 13 17 7 9 1010.8 1010.6 0.0
17/11:46pm 20.2 18.7 14.3 69 3.4 SSW 15 20 8 11 1010.9 1010.7 0.0
17/11:30pm 20.4 18.2 14.3 68 3.6 SSW 19 22 10 12 1010.9 1010.7 0.0
17/11:26pm 20.4 18.0 14.3 68 3.6 SSW 20 32 11 17 1011.0 1010.8 0.0
17/11:16pm 20.6 18.1 14.0 66 3.8 SSW 20 26 11 14 1011.0 1010.8 0.0
17/11:00pm 20.9 17.9 13.6 63 4.2 SSW 22 30 12 16 1010.7 1010.5 0.0
17/10:30pm 21.3 16.0 13.0 59 4.7 SSW 33 46 18 25 1010.2 1010.0 0.0
17/10:00pm 22.8 17.7 11.8 50 6.2 SSW 30 44 16 24 1009.4 1009.2 0.0
17/09:30pm 23.3 18.4 11.4 47 6.7 SSW 28 39 15 21 1008.7 1008.5 0.0
17/09:00pm 23.4 18.3 10.5 44 7.2 SSW 28 41 15 22 1007.8 1007.6 0.0
17/08:30pm 24.1 20.5 10.4 42 7.6 SW 20 28 11 15 1006.7 1006.4 0.0
17/08:00pm 24.7 19.9 11.6 44 7.5 SW 28 37 15 20 1005.9 1005.6 0.0
17/07:30pm 25.7 21.4 13.2 46 7.3 SSW 28 33 15 18 1004.9 1004.6 0.0
17/07:00pm 30.2 25.3 8.6 26 12.0 S 24 33 13 18 1004.5 1004.2 0.0
17/06:30pm 31.9 26.2 6.9 21 13.6 S 26 33 14 18 1004.1 1003.8 0.0
17/06:00pm 32.0 25.0 7.0 21 13.7 S 33 43 18 23 1004.1 1003.8 0.0
17/05:30pm 33.8 26.1 7.0 19 14.8 S 37 46 20 25 1004.2 1003.9 0.0
17/05:17pm 35.8 29.2 2.0 12 17.4 S 26 43 14 23 1004.1 1003.8 0.0
17/05:00pm 38.0 33.3 1.1 10 19.0 SE 15 24 8 13 1004.1 1003.8 0.0
17/04:30pm 37.7 32.8 2.2 11 18.5 SE 17 24 9 13 1004.8 1004.5 0.0
17/04:00pm 38.0 33.6 2.5 11 18.7 S 15 22 8 12 1005.4 1005.1 0.0
17/03:30pm 37.2 33.0 1.8 11 18.3 SE 13 20 7 11 1005.8 1005.5 0.0
17/03:00pm 34.9 29.9 4.4 15 16.2 S 20 30 11 16 1006.6 1006.3 0.0
17/02:30pm 34.5 29.8 3.1 14 16.3 SSE 17 24 9 13 1006.8 1006.5 0.0
17/02:00pm 33.8 27.8 3.6 15 15.8 S 24 33 13 18 1007.1 1006.8 0.0
17/01:30pm 32.6 27.8 7.4 21 13.9 S 22 35 12 19 1007.6 1007.4 0.0
17/01:12pm 32.8 26.5 8.9 23 13.5 SSW 32 43 17 23 1007.3 1007.0 0.0
17/01:00pm 37.9 30.7 1.0 10 18.9 WNW 28 41 15 22 1007.3 1007.0 0.0
17/12:40pm 38.0 30.9 1.1 10 18.9 WNW 28 52 15 28 1007.3 1007.0 0.0
17/12:37pm 37.9 30.5 -0.4 9 19.2 WNW 28 52 15 28 1007.3 1007.0 0.0
17/12:30pm 38.3 31.4 2.7 11 18.8 NW 28 39 15 21 1007.4 1007.1 0.0
17/12:00pm 36.9 30.0 0.3 10 18.5 NW 26 35 14 19 1007.6 1007.4 0.0
17/11:30am 36.2 30.6 1.1 11 17.8 NNW 20 30 11 16 1007.8 1007.6 0.0
17/11:00am 35.9 30.3 0.9 11 17.7 NNW 20 28 11 15 1008.1 1007.9 0.0
17/10:30am 33.2 28.4 4.9 17 15.0 N 19 28 10 15 1008.5 1008.3 0.0
17/10:00am 32.5 27.4 5.9 19 14.3 NNW 22 30 12 16 1008.8 1008.6 0.0
17/09:30am 30.0 25.7 5.3 21 13.0 N 17 28 9 15 1009.2 1009.0 0.0
17/09:00am 27.8 26.9 9.1 31 10.3 S 4 11 2 6 1009.6 1009.4 0.0
17/08:30am 25.9 24.4 9.3 35 9.1 ENE 7 9 4 5 1009.2 1009.0 0.0
17/08:00am 25.0 23.3 9.7 38 8.4 SSE 9 11 5 6 1009.4 1009.2 0.0
17/07:30am 23.1 22.5 8.8 40 7.7 SSE 2 7 1 4 1009.3 1009.1 0.0
17/07:00am 22.9 21.7 6.6 35 8.4 SW 2 7 1 4 1009.0 1008.8 0.0
17/06:30am 23.9 21.3 6.2 32 9.1 N 9 15 5 8 1008.4 1008.2 0.0
17/06:00am 23.7 20.3 6.0 32 9.1 N 13 17 7 9 1008.0 1007.8 0.0
17/05:30am 23.4 19.3 6.2 33 8.8 N 17 20 9 11 1007.7 1007.5 0.0
17/05:00am 23.0 18.5 6.3 34 8.6 N 19 24 10 13 1007.5 1007.2 0.0
17/04:30am 24.0 19.5 6.3 32 9.1 N 19 24 10 13 1007.6 1007.4 0.0
17/04:00am 24.8 20.1 6.1 30 9.7 N 20 28 11 15 1007.5 1007.2 0.0
17/03:30am 23.9 19.3 6.7 33 8.9 N 20 26 11 14 1007.7 1007.5 0.0
17/03:00am 23.8 19.3 7.0 34 8.8 N 20 26 11 14 1007.8 1007.6 0.0
17/02:30am 23.6 19.7 7.3 35 8.5 N 17 22 9 12 1008.0 1007.8 0.0
17/02:00am 21.9 19.4 9.8 46 6.6 N 13 17 7 9 1008.2 1008.0 0.0
17/01:30am 20.4 19.3 12.1 59 4.7 N 9 13 5 7 1008.5 1008.3 0.0
17/01:00am 20.2 19.9 12.7 62 4.3 N 6 11 3 6 1009.3 1009.1 0.0
17/12:30am 21.6 21.1 12.5 56 5.2 NW 7 11 4 6 1009.8 1009.6 0.0
17/12:00am 22.4 21.5 12.6 54 5.6 WNW 9 13 5 7 1009.9 1009.7 0.0
 
Date/Time
EDT
Temp
°C
App
Temp
°C
Dew
Point
°C
Rel
Hum
%
Delta-T
°C
Wind Press
QNH
hPa
Press
MSL
hPa
Rain since
9am
mm
Dir  Spd
km/h
Gust
km/h
Spd
kts
Gust
kts
16/11:30pm 22.9 20.9 12.8 53 5.8 WSW 15 17 8 9 1010.0 1009.8 0.0
16/11:00pm 23.5 21.0 12.2 49 6.5 W 17 20 9 11 1010.2 1010.0 0.0
16/10:30pm 24.1 22.1 12.7 49 6.6 WNW 15 17 8 9 1010.0 1009.8 0.0
16/10:00pm 24.2 23.7 12.8 49 6.6 NW 7 9 4 5 1010.0 1009.8 0.0
16/09:30pm 24.8 24.4 13.0 47 6.9 W 7 9 4 5 1010.1 1009.9 0.0
16/09:00pm 24.9 24.1 12.8 47 7.0 WSW 9 13 5 7 1010.0 1009.8 0.0
16/08:30pm 26.1 24.7 12.2 42 8.0 SSW 11 13 6 7 1010.1 1009.9 0.0
16/08:00pm 27.2 23.9 10.8 36 9.3 SSW 19 26 10 14 1010.2 1010.0 0.0
16/07:30pm 28.2 24.0 9.9 32 10.3 S 22 26 12 14 1010.0 1009.8 0.0
16/07:00pm 29.7 25.0 9.3 28 11.4 S 24 32 13 17 1009.7 1009.5 0.0
16/06:30pm 31.8 28.8 10.5 27 12.3 S 17 20 9 11 1009.5 1009.3 0.0
16/06:00pm 33.2 30.2 9.3 23 13.6 S 15 20 8 11 1009.5 1009.3 0.0
16/05:30pm 32.6 29.6 10.6 26 12.7 S 17 20 9 11 1009.8 1009.6 0.0
16/05:00pm 31.8 28.2 10.5 27 12.3 S 20 24 11 13 1010.0 1009.8 0.0
16/04:30pm 31.3 27.3 10.6 28 11.9 S 22 26 12 14 1010.3 1010.1 0.0
16/04:00pm 30.6 26.4 11.1 30 11.3 S 24 32 13 17 1010.7 1010.5 0.0
16/03:30pm 31.4 27.6 11.2 29 11.7 S 22 30 12 16 1010.9 1010.7 0.0
16/03:00pm 32.5 30.2 10.5 26 12.7 SSE 13 28 7 15 1011.4 1011.2 0.0
16/02:30pm 31.4 29.5 9.0 25 12.6 SSW 9 17 5 9 1011.8 1011.6 0.0
16/02:00pm 31.1 29.0 11.0 29 11.6 ESE 13 17 7 9 1012.5 1012.3 0.0
16/01:30pm 29.2 27.5 9.9 30 10.9 N 9 17 5 9 1013.0 1012.8 0.0

Other Formats:

Comma delimited format used in spreadsheet applications
http://www.bom.gov.au/fwo/IDV60801/IDV60801.95866.axf

JavaScript Object Notation format (JSON) in row-major order
http://www.bom.gov.au/fwo/IDV60801/IDV60801.95866.json